Terminal Aerodrome Forecast
Issued by NWS

Home | Current Version | Previous Version | Text Only | Print | Product List | Glossary On
Versions: 1 2 3 4 5 6 7 8 9 10 11 12 13 14 15 16
000
FTUS41 KBTV 160500
TAFMSS
TAF
KMSS 160523Z 1606/1706 VRB03KT P6SM -SHRA OVC070
     FM161000 25004KT P6SM OVC030
     FM161200 26006KT P6SM BKN025
     FM161500 27006KT P6SM BKN050
     FM170100 23005KT P6SM SCT250=

USA.gov is the U.S. government's official web portal to all federal, state and local government web resources and services.